Time;durP1;ratioP1;P1;durP2;ratioP2;P2;SDS_P1;SDS_P2;PMS_P1;PMS_P2;Temp;Humidity;BMP_temperature;BMP_pressure;BME280_temperature;BME280_humidity;BME280_pressure;Samples;Min_cycle;Max_cycle;Signal;HPM_P1;HPM_P2
2022/12/30 00:01:24;;;;;;;68.47;33.20;;;-0.30;99.90;;;;;;4935558;29;20381;-70
2022/12/30 00:03:51;;;;;;;68.88;32.03;;;-0.30;99.90;;;;;;4935705;29;20027;-70
2022/12/30 00:06:20;;;;;;;68.57;32.78;;;-0.30;99.90;;;;;;4918520;29;20499;-70
2022/12/30 00:08:52;;;;;;;71.28;32.42;;;-0.30;99.90;;;;;;4918387;29;20031;-71
2022/12/30 00:11:28;;;;;;;71.00;32.42;;;-0.20;99.90;;;;;;4935523;29;20079;-70
2022/12/30 00:33:45;;;;;;;77.43;34.83;;;0.00;99.90;;;;;;4938346;29;20034;-71
2022/12/30 00:36:11;;;;;;;71.77;32.57;;;0.00;99.90;;;;;;4899337;29;1137391;-70
2022/12/30 00:38:37;;;;;;;72.03;33.75;;;0.00;99.90;;;;;;4922633;29;20040;-70
2022/12/30 00:43:46;;;;;;;71.50;32.25;;;0.00;99.90;;;;;;4939257;29;20038;-70
2022/12/30 00:46:12;;;;;;;67.93;32.97;;;0.10;99.90;;;;;;4939290;29;20040;-71
2022/12/30 00:56:51;;;;;;;72.35;32.30;;;0.10;99.90;;;;;;4939074;29;20102;-71
2022/12/30 00:59:16;;;;;;;72.68;33.97;;;0.10;99.90;;;;;;4939004;29;20461;-71
2022/12/30 01:01:42;;;;;;;71.18;33.03;;;0.10;99.90;;;;;;4939039;29;20143;-71
2022/12/30 01:04:08;;;;;;;73.05;31.48;;;0.10;99.90;;;;;;4938915;29;20460;-71
2022/12/30 01:06:36;;;;;;;72.68;31.77;;;0.10;99.90;;;;;;4939053;29;20091;-71
2022/12/30 01:09:02;;;;;;;78.27;33.47;;;0.10;99.90;;;;;;4938669;29;20388;-71
2022/12/30 01:11:27;;;;;;;78.53;32.65;;;0.10;99.90;;;;;;4939169;29;20271;-72
2022/12/30 01:13:53;;;;;;;78.50;34.88;;;0.10;99.90;;;;;;4938760;29;20034;-71
2022/12/30 01:16:19;;;;;;;75.65;33.05;;;0.10;99.90;;;;;;4941898;29;20118;-71
2022/12/30 01:18:44;;;;;;;69.68;32.00;;;0.10;99.90;;;;;;4943633;29;20034;-71
2022/12/30 01:21:11;;;;;;;76.93;33.15;;;0.10;99.90;;;;;;4943654;29;20035;-71
2022/12/30 01:23:37;;;;;;;98.03;35.20;;;0.10;99.90;;;;;;4943162;29;20095;-71
2022/12/30 01:26:04;;;;;;;111.28;34.88;;;0.10;99.90;;;;;;4944740;29;20032;-71
2022/12/30 01:28:35;;;;;;;117.25;35.05;;;0.10;99.90;;;;;;4943384;29;20042;-71
2022/12/30 01:31:04;;;;;;;89.57;34.83;;;0.10;99.90;;;;;;4942331;29;20125;-71
2022/12/30 01:33:30;;;;;;;89.40;34.03;;;0.10;99.90;;;;;;4942416;29;20042;-71
2022/12/30 01:35:56;;;;;;;91.55;34.63;;;0.10;99.90;;;;;;4939878;29;20528;-70
2022/12/30 01:38:21;;;;;;;100.65;36.30;;;0.10;99.90;;;;;;4922252;29;20362;-71
2022/12/30 01:40:47;;;;;;;94.57;34.67;;;0.10;99.90;;;;;;4938571;29;20037;-71
2022/12/30 01:43:15;;;;;;;82.72;35.38;;;0.10;99.90;;;;;;4938437;29;20023;-70
2022/12/30 01:45:45;;;;;;;97.38;36.85;;;0.00;99.90;;;;;;4938355;29;20503;-71
2022/12/30 01:48:16;;;;;;;106.40;37.13;;;0.10;99.90;;;;;;4938194;29;20028;-70
2022/12/30 01:50:57;;;;;;;87.30;35.97;;;0.10;99.90;;;;;;4937936;29;20060;-70
2022/12/30 01:53:32;;;;;;;98.20;37.05;;;0.10;99.90;;;;;;4921065;29;20471;-71
2022/12/30 01:56:05;;;;;;;93.78;38.70;;;0.20;99.90;;;;;;4938564;29;20035;-71
2022/12/30 01:58:36;;;;;;;82.25;36.80;;;0.20;99.90;;;;;;4921069;29;20028;-71
2022/12/30 02:01:02;;;;;;;90.38;37.70;;;0.20;99.90;;;;;;4937762;29;20027;-71
2022/12/30 02:03:35;;;;;;;81.28;36.20;;;0.30;99.90;;;;;;4920796;29;20035;-71
2022/12/30 02:06:01;;;;;;;88.18;37.38;;;0.30;99.90;;;;;;4938294;29;20077;-71
2022/12/30 02:08:28;;;;;;;88.35;37.75;;;0.40;99.90;;;;;;4920537;29;20476;-71
2022/12/30 02:10:55;;;;;;;85.35;37.13;;;0.40;99.90;;;;;;4937556;29;20019;-70
2022/12/30 02:13:21;;;;;;;88.53;35.72;;;0.40;99.90;;;;;;4920487;29;20115;-71
2022/12/30 02:15:56;;;;;;;88.43;37.63;;;0.40;99.90;;;;;;4937613;29;20118;-70
2022/12/30 02:19:11;;;;;;;101.05;38.25;;;0.40;99.90;;;;;;4920531;29;20031;-70
2022/12/30 02:21:59;;;;;;;84.93;35.75;;;0.40;99.90;;;;;;4914370;29;20152;-70
2022/12/30 02:24:46;;;;;;;102.30;37.17;;;0.40;99.90;;;;;;4922124;29;20028;-71
2022/12/30 02:27:56;;;;;;;98.30;36.83;;;0.40;99.90;;;;;;4938893;29;20040;-71
2022/12/30 02:31:03;;;;;;;96.50;37.35;;;0.40;99.90;;;;;;4937847;29;20032;-70
2022/12/30 02:33:44;;;;;;;112.20;37.60;;;0.50;99.90;;;;;;4919652;29;20035;-71
2022/12/30 02:36:25;;;;;;;140.05;40.55;;;0.50;99.90;;;;;;4937192;29;20099;-70
2022/12/30 02:39:07;;;;;;;114.20;38.67;;;0.50;99.90;;;;;;4937025;29;20389;-70
2022/12/30 02:44:48;;;;;;;147.93;40.40;;;0.60;99.90;;;;;;4937381;29;20094;-70
2022/12/30 02:47:32;;;;;;;116.00;40.88;;;0.60;99.90;;;;;;4920315;29;20032;-70
2022/12/30 02:52:49;;;;;;;136.93;41.47;;;0.70;99.90;;;;;;4936775;29;20038;-71
2022/12/30 02:55:16;;;;;;;110.88;39.08;;;0.60;99.90;;;;;;4937323;29;20469;-70
2022/12/30 02:57:42;;;;;;;92.10;37.80;;;0.70;99.90;;;;;;4937507;29;20020;-70
2022/12/30 03:06:24;;;;;;;96.22;39.15;;;0.80;99.90;;;;;;4936528;29;20047;-70
2022/12/30 03:09:08;;;;;;;96.70;38.75;;;0.80;99.90;;;;;;4936815;29;20027;-71
2022/12/30 03:11:50;;;;;;;111.80;39.78;;;0.80;99.90;;;;;;4936487;29;20028;-70
2022/12/30 03:14:33;;;;;;;102.38;40.28;;;0.80;99.90;;;;;;4920137;29;20626;-71
2022/12/30 03:17:10;;;;;;;105.28;39.83;;;0.80;99.90;;;;;;4936681;29;20492;-70
2022/12/30 03:19:42;;;;;;;100.43;39.70;;;0.90;99.90;;;;;;4920066;29;20176;-71
2022/12/30 03:27:03;;;;;;;102.60;41.13;;;0.90;99.90;;;;;;4937344;29;20559;-70
2022/12/30 03:27:45;;;;;;;114.65;39.47;;;1.00;99.90;;;;;;4936452;29;20086;-70
2022/12/30 03:30:11;;;;;;;112.77;40.70;;;0.90;99.90;;;;;;4919456;29;20031;-70
2022/12/30 03:32:38;;;;;;;148.70;40.80;;;0.90;99.90;;;;;;4936210;29;20264;-70
2022/12/30 03:35:05;;;;;;;121.13;38.58;;;0.90;99.90;;;;;;4936529;29;20039;-70
2022/12/30 03:37:39;;;;;;;118.57;36.67;;;0.90;99.90;;;;;;4936524;29;20122;-70
2022/12/30 03:40:29;;;;;;;132.05;37.60;;;0.90;99.90;;;;;;4936613;29;20031;-70
2022/12/30 03:42:56;;;;;;;127.88;36.30;;;0.80;99.90;;;;;;4936632;29;20365;-70
2022/12/30 03:45:22;;;;;;;122.13;37.80;;;0.80;99.90;;;;;;4919361;29;20396;-70
2022/12/30 03:47:48;;;;;;;113.82;38.28;;;0.80;99.90;;;;;;4936744;29;20063;-70
2022/12/30 03:50:13;;;;;;;129.35;38.80;;;0.80;99.90;;;;;;4919332;29;20091;-70
2022/12/30 03:52:39;;;;;;;137.15;40.58;;;0.80;99.90;;;;;;4936402;29;20028;-70
2022/12/30 03:55:05;;;;;;;132.98;38.00;;;0.80;99.90;;;;;;4936208;29;20032;-70
2022/12/30 03:57:31;;;;;;;138.93;40.50;;;0.80;99.90;;;;;;4936697;29;20038;-70
2022/12/30 03:59:57;;;;;;;139.90;40.42;;;0.80;99.90;;;;;;4936351;29;20034;-70
2022/12/30 04:02:22;;;;;;;127.57;39.60;;;0.80;99.90;;;;;;4938036;29;20027;-71
2022/12/30 04:04:48;;;;;;;165.25;41.05;;;0.80;99.90;;;;;;4939685;29;20038;-70
2022/12/30 04:07:14;;;;;;;116.20;39.28;;;0.80;99.90;;;;;;4940099;29;20118;-70
2022/12/30 04:09:39;;;;;;;127.70;39.97;;;0.80;99.90;;;;;;4940432;29;20031;-74
2022/12/30 04:12:05;;;;;;;141.75;38.45;;;0.90;99.90;;;;;;4944884;29;20126;-71
2022/12/30 04:14:31;;;;;;;106.68;37.22;;;0.90;99.90;;;;;;4927496;29;20034;-71
2022/12/30 04:16:56;;;;;;;103.40;35.47;;;0.80;99.90;;;;;;4925879;29;20028;-71
2022/12/30 04:19:22;;;;;;;98.15;36.50;;;0.80;99.90;;;;;;4923493;29;20031;-70
2022/12/30 04:21:48;;;;;;;109.05;36.60;;;0.80;99.90;;;;;;4922645;29;20103;-71
2022/12/30 04:24:14;;;;;;;101.32;36.72;;;0.80;99.90;;;;;;4939659;29;20039;-70
2022/12/30 04:26:40;;;;;;;92.53;36.33;;;0.80;99.90;;;;;;4939474;29;20060;-70
2022/12/30 04:29:06;;;;;;;92.47;36.22;;;0.80;99.90;;;;;;4939551;29;20032;-70
2022/12/30 04:31:32;;;;;;;92.68;37.60;;;0.80;99.90;;;;;;4939228;29;20028;-70
2022/12/30 04:33:57;;;;;;;88.80;36.58;;;0.80;99.90;;;;;;4939416;29;20031;-70
2022/12/30 04:36:23;;;;;;;78.68;35.10;;;0.80;99.90;;;;;;4922336;29;20091;-70
2022/12/30 04:38:49;;;;;;;90.00;35.67;;;0.80;99.90;;;;;;4922375;29;20027;-70
2022/12/30 04:41:17;;;;;;;78.90;33.70;;;0.80;99.90;;;;;;4939294;29;20038;-70
2022/12/30 04:43:43;;;;;;;78.00;35.78;;;0.90;99.90;;;;;;4939068;29;20047;-71
2022/12/30 04:46:09;;;;;;;83.35;35.50;;;0.90;99.90;;;;;;4922328;29;20484;-70
2022/12/30 04:48:34;;;;;;;78.22;34.58;;;0.80;99.90;;;;;;4939448;29;20024;-70
2022/12/30 04:51:00;;;;;;;89.70;37.47;;;0.80;99.90;;;;;;4938940;29;20039;-70
2022/12/30 04:53:26;;;;;;;87.15;35.75;;;0.70;99.90;;;;;;4921994;29;20028;-70
2022/12/30 04:55:52;;;;;;;76.75;33.53;;;0.70;99.90;;;;;;4939344;29;20032;-70
2022/12/30 04:58:18;;;;;;;78.93;34.53;;;0.70;99.90;;;;;;4921930;29;20059;-71
2022/12/30 05:00:45;;;;;;;76.18;33.72;;;0.70;99.90;;;;;;4938971;29;20039;-70
2022/12/30 05:03:11;;;;;;;73.10;32.55;;;0.70;99.90;;;;;;4938715;29;20028;-70
2022/12/30 05:05:37;;;;;;;75.28;33.50;;;0.70;99.90;;;;;;4938884;29;20166;-70
2022/12/30 05:08:02;;;;;;;74.35;33.25;;;0.70;99.90;;;;;;4938871;29;20063;-70
2022/12/30 05:10:28;;;;;;;69.88;31.83;;;0.60;99.90;;;;;;4938817;29;20023;-70
2022/12/30 05:12:54;;;;;;;74.57;32.70;;;0.60;99.90;;;;;;4921356;29;20028;-70
2022/12/30 05:15:19;;;;;;;75.15;33.58;;;0.60;99.90;;;;;;4938557;29;20032;-70
2022/12/30 05:17:45;;;;;;;75.78;32.03;;;0.60;99.90;;;;;;4939032;29;20429;-71
2022/12/30 05:20:11;;;;;;;77.68;33.88;;;0.60;99.90;;;;;;4938418;29;20469;-70
2022/12/30 05:22:37;;;;;;;74.07;32.28;;;0.60;99.90;;;;;;4938714;29;20469;-70
2022/12/30 05:27:47;;;;;;;72.22;32.38;;;0.50;99.90;;;;;;4938921;29;20058;-70
2022/12/30 05:30:12;;;;;;;78.85;33.47;;;0.50;99.90;;;;;;4938829;29;20449;-70
2022/12/30 05:32:38;;;;;;;72.03;33.13;;;0.50;99.90;;;;;;4921517;29;20031;-70
2022/12/30 05:35:04;;;;;;;80.00;32.83;;;0.50;99.90;;;;;;4938156;29;20373;-71
2022/12/30 05:37:30;;;;;;;69.95;32.42;;;0.50;99.90;;;;;;4937962;29;20102;-70
2022/12/30 05:39:55;;;;;;;75.57;33.17;;;0.50;99.90;;;;;;4938294;29;20118;-70
2022/12/30 05:42:21;;;;;;;75.70;32.25;;;0.50;99.90;;;;;;4938414;29;20082;-70
2022/12/30 05:44:47;;;;;;;70.65;32.33;;;0.50;99.90;;;;;;4938120;29;20024;-69
2022/12/30 05:47:12;;;;;;;71.35;31.83;;;0.50;99.90;;;;;;4938169;29;20071;-69
2022/12/30 05:49:38;;;;;;;82.72;34.30;;;0.50;99.90;;;;;;4938346;29;20111;-69
2022/12/30 05:52:03;;;;;;;71.13;32.70;;;0.50;99.90;;;;;;4938077;29;20119;-69
2022/12/30 05:54:29;;;;;;;70.43;31.35;;;0.50;99.90;;;;;;4921145;29;20032;-70
2022/12/30 05:56:55;;;;;;;69.60;31.75;;;0.50;99.90;;;;;;4938084;29;20043;-68
2022/12/30 05:59:20;;;;;;;63.38;30.65;;;0.50;99.90;;;;;;4937621;29;20035;-68
2022/12/30 06:01:46;;;;;;;66.53;31.30;;;0.50;99.90;;;;;;4938085;29;20103;-67
2022/12/30 06:04:12;;;;;;;70.15;30.75;;;0.50;99.90;;;;;;4938160;29;20079;-68
2022/12/30 06:06:37;;;;;;;66.28;29.98;;;0.50;99.90;;;;;;4937726;29;20090;-69
2022/12/30 06:09:03;;;;;;;73.60;33.15;;;0.50;99.90;;;;;;4921410;29;20425;-69
2022/12/30 06:11:28;;;;;;;64.18;29.75;;;0.60;99.90;;;;;;4920666;29;20476;-68
2022/12/30 06:13:54;;;;;;;64.03;30.13;;;0.60;99.90;;;;;;4920641;29;20098;-68
2022/12/30 06:16:20;;;;;;;70.82;31.95;;;0.60;99.90;;;;;;4937389;29;20102;-68
2022/12/30 06:18:46;;;;;;;61.85;29.92;;;0.60;99.90;;;;;;4937330;29;20032;-68
2022/12/30 06:21:12;;;;;;;62.03;28.83;;;0.60;99.90;;;;;;4937589;29;20023;-68
2022/12/30 06:23:37;;;;;;;66.25;29.70;;;0.70;99.90;;;;;;4920370;29;20457;-68
2022/12/30 06:26:03;;;;;;;66.63;29.33;;;0.70;99.90;;;;;;4936702;29;20035;-69
2022/12/30 06:28:30;;;;;;;56.05;28.67;;;0.70;99.90;;;;;;4937416;29;20038;-68
2022/12/30 06:30:56;;;;;;;65.45;28.65;;;0.70;99.90;;;;;;4937463;29;20028;-66
2022/12/30 06:33:23;;;;;;;60.78;27.67;;;0.70;99.90;;;;;;4920355;29;20066;-67
2022/12/30 06:35:49;;;;;;;63.08;29.08;;;0.70;99.90;;;;;;4936895;29;20042;-67
2022/12/30 06:38:15;;;;;;;63.47;28.52;;;0.70;99.90;;;;;;4937181;29;20048;-67
2022/12/30 06:40:40;;;;;;;59.63;26.67;;;0.80;99.90;;;;;;4938115;29;20583;-67
2022/12/30 06:43:06;;;;;;;57.22;27.10;;;0.80;99.90;;;;;;4937988;29;20031;-68
2022/12/30 06:45:32;;;;;;;53.58;26.30;;;0.80;99.90;;;;;;4921551;29;20067;-67
2022/12/30 06:47:58;;;;;;;58.60;29.42;;;0.80;99.90;;;;;;4938176;29;20039;-67
2022/12/30 06:50:23;;;;;;;56.17;27.63;;;0.80;99.90;;;;;;4937460;29;20030;-67
2022/12/30 06:52:49;;;;;;;61.38;28.50;;;0.90;99.90;;;;;;4920222;29;20122;-67
2022/12/30 06:55:15;;;;;;;59.72;28.65;;;0.90;99.90;;;;;;4919955;29;20035;-67
2022/12/30 06:57:40;;;;;;;57.60;27.25;;;0.90;99.90;;;;;;4937250;29;20461;-67
2022/12/30 07:00:07;;;;;;;58.95;28.55;;;0.90;99.90;;;;;;4936921;29;20087;-67
2022/12/30 07:02:34;;;;;;;58.63;29.15;;;0.90;99.90;;;;;;4937337;29;20035;-67
2022/12/30 07:04:59;;;;;;;58.35;27.45;;;0.90;99.90;;;;;;4938876;29;20451;-67
2022/12/30 07:07:26;;;;;;;60.33;29.08;;;0.90;99.90;;;;;;4938357;29;20085;-67
2022/12/30 07:09:51;;;;;;;55.67;26.92;;;0.90;99.90;;;;;;4937556;29;20042;-67
2022/12/30 07:12:18;;;;;;;66.57;30.25;;;0.90;99.90;;;;;;4936945;29;20036;-60
2022/12/30 07:14:43;;;;;;;68.32;32.70;;;1.00;99.90;;;;;;4937198;29;20038;-60
2022/12/30 07:17:09;;;;;;;69.95;32.40;;;1.00;99.90;;;;;;4936425;29;20039;-60
2022/12/30 07:19:35;;;;;;;66.32;30.65;;;1.00;99.90;;;;;;4936721;29;20028;-60
2022/12/30 07:22:00;;;;;;;70.50;33.33;;;1.10;99.90;;;;;;4919611;29;20032;-65
2022/12/30 07:24:26;;;;;;;59.40;29.00;;;1.20;99.90;;;;;;4920010;29;20031;-66
2022/12/30 07:26:52;;;;;;;63.63;31.35;;;1.20;99.90;;;;;;4919475;29;20043;-66
2022/12/30 07:29:18;;;;;;;62.58;30.63;;;1.20;99.90;;;;;;4936762;29;20432;-66
2022/12/30 07:31:43;;;;;;;62.15;31.45;;;1.20;99.90;;;;;;4936408;29;20404;-66
2022/12/30 07:34:10;;;;;;;58.65;31.30;;;1.30;99.90;;;;;;4936544;29;20063;-66
2022/12/30 07:36:35;;;;;;;54.35;28.13;;;1.30;99.90;;;;;;4937269;29;20400;-67
2022/12/30 07:39:01;;;;;;;57.92;27.90;;;1.30;99.90;;;;;;4940526;29;20036;-66
2022/12/30 07:41:27;;;;;;;55.40;25.50;;;1.30;99.90;;;;;;4940131;29;20024;-68
2022/12/30 07:43:53;;;;;;;56.50;24.95;;;1.40;99.90;;;;;;4940140;29;20024;-66
2022/12/30 07:46:19;;;;;;;58.08;27.52;;;1.40;99.90;;;;;;4940368;29;20122;-66
2022/12/30 07:48:45;;;;;;;56.83;27.63;;;1.40;99.90;;;;;;4922797;29;20118;-67
2022/12/30 07:51:13;;;;;;;62.97;31.23;;;1.50;99.90;;;;;;4940214;29;20115;-66
2022/12/30 07:53:40;;;;;;;58.87;30.70;;;1.50;99.90;;;;;;4940332;29;20091;-66
2022/12/30 07:56:09;;;;;;;60.67;31.67;;;1.50;99.90;;;;;;4923072;29;20042;-66
2022/12/30 07:58:35;;;;;;;62.47;32.20;;;1.60;99.90;;;;;;4940113;29;20028;-66
2022/12/30 08:01:05;;;;;;;56.78;28.83;;;1.60;99.90;;;;;;4923362;29;20098;-73
2022/12/30 08:03:31;;;;;;;63.88;31.10;;;1.70;99.90;;;;;;4940019;29;20028;-66
2022/12/30 08:06:01;;;;;;;59.25;30.88;;;1.80;99.90;;;;;;4939621;29;20115;-69
2022/12/30 08:08:27;;;;;;;65.32;31.13;;;1.90;99.90;;;;;;4939960;29;20417;-67
2022/12/30 08:10:55;;;;;;;68.60;33.13;;;2.00;99.90;;;;;;4939831;29;20110;-66
2022/12/30 08:13:20;;;;;;;63.25;31.77;;;2.10;99.90;;;;;;4939790;29;20027;-66
2022/12/30 08:15:46;;;;;;;62.92;31.17;;;2.20;99.90;;;;;;4923463;29;20475;-67
2022/12/30 08:18:11;;;;;;;58.80;29.10;;;2.20;99.90;;;;;;4922586;29;20024;-66
2022/12/30 08:20:37;;;;;;;51.35;25.58;;;2.30;99.90;;;;;;4939367;29;20119;-66
2022/12/30 08:23:03;;;;;;;40.55;22.70;;;2.50;99.90;;;;;;4939626;29;20059;-66
2022/12/30 08:25:28;;;;;;;41.50;21.38;;;2.60;99.90;;;;;;4922491;29;20087;-67
2022/12/30 08:27:54;;;;;;;42.17;21.52;;;2.80;99.90;;;;;;4939545;29;20453;-67
2022/12/30 08:30:20;;;;;;;35.95;19.58;;;2.90;99.90;;;;;;4939725;29;20028;-68
2022/12/30 08:32:45;;;;;;;40.35;22.73;;;3.10;99.90;;;;;;4922291;29;20376;-69
2022/12/30 08:35:11;;;;;;;36.28;20.40;;;3.20;99.90;;;;;;4922318;29;20367;-67
2022/12/30 08:37:37;;;;;;;36.90;18.90;;;3.30;99.90;;;;;;4939619;29;20465;-67
2022/12/30 08:40:03;;;;;;;32.50;18.52;;;3.50;99.90;;;;;;4938789;29;20063;-68
2022/12/30 08:42:29;;;;;;;38.00;22.38;;;3.70;99.90;;;;;;4939270;29;20143;-67
2022/12/30 08:44:55;;;;;;;29.08;15.93;;;3.90;99.90;;;;;;4939312;29;20102;-67
2022/12/30 08:47:20;;;;;;;29.88;14.98;;;4.40;99.90;;;;;;4939158;29;20139;-67
2022/12/30 08:49:46;;;;;;;15.77;8.57;;;4.80;99.90;;;;;;4938150;29;20512;-68
2022/12/30 08:52:11;;;;;;;8.02;4.95;;;5.30;99.90;;;;;;4937798;29;20028;-68
2022/12/30 08:54:37;;;;;;;11.32;5.78;;;5.90;99.90;;;;;;4939053;29;20027;-67
2022/12/30 08:57:03;;;;;;;9.65;6.05;;;6.30;99.90;;;;;;4939001;29;20031;-67
2022/12/30 08:59:28;;;;;;;4.15;2.35;;;6.70;99.90;;;;;;4937683;29;20472;-67
2022/12/30 09:01:54;;;;;;;3.05;2.15;;;7.20;99.90;;;;;;4937626;29;20028;-68
2022/12/30 09:04:20;;;;;;;5.43;2.33;;;7.70;99.90;;;;;;4921991;29;20028;-68
2022/12/30 09:06:45;;;;;;;3.17;1.83;;;8.20;99.90;;;;;;4921979;29;20126;-68
2022/12/30 09:09:14;;;;;;;3.08;2.28;;;8.50;99.90;;;;;;4937584;29;20027;-68
2022/12/30 09:11:41;;;;;;;4.07;2.37;;;8.70;99.90;;;;;;4938911;29;20357;-69
2022/12/30 09:14:08;;;;;;;2.55;1.42;;;8.70;99.90;;;;;;4939051;29;20023;-69
2022/12/30 09:16:35;;;;;;;1.70;1.60;;;8.80;99.90;;;;;;4921916;29;20032;-69
2022/12/30 09:19:00;;;;;;;5.47;1.52;;;8.90;99.90;;;;;;4938859;29;20416;-68
2022/12/30 09:21:27;;;;;;;2.20;1.60;;;9.20;99.90;;;;;;4938796;29;20086;-69
2022/12/30 09:23:53;;;;;;;3.70;1.75;;;9.60;99.90;;;;;;4921985;29;20066;-69
2022/12/30 09:26:21;;;;;;;2.00;1.60;;;10.00;99.90;;;;;;4937308;29;20068;-69
2022/12/30 09:28:48;;;;;;;3.15;1.50;;;10.20;99.90;;;;;;4921698;29;20023;-70
2022/12/30 09:31:14;;;;;;;4.63;1.88;;;10.50;99.90;;;;;;4938610;29;20039;-69
2022/12/30 09:33:39;;;;;;;3.97;1.77;;;10.90;99.90;;;;;;4921859;29;20031;-70
2022/12/30 09:36:07;;;;;;;3.20;1.70;;;11.30;99.90;;;;;;4937976;29;20035;-70
2022/12/30 09:38:32;;;;;;;3.08;1.38;;;11.70;99.90;;;;;;4937923;29;20081;-69
2022/12/30 09:41:09;;;;;;;3.05;1.58;;;12.20;99.90;;;;;;4938033;29;20052;-68
2022/12/30 09:44:02;;;;;;;2.45;2.25;;;12.60;99.90;;;;;;4936469;29;20076;-69
2022/12/30 09:46:56;;;;;;;1.83;1.10;;;12.90;99.90;;;;;;4937040;29;20186;-68
2022/12/30 09:49:28;;;;;;;2.15;1.20;;;13.40;99.90;;;;;;4916745;29;20035;-69
2022/12/30 09:52:19;;;;;;;2.63;1.85;;;13.90;99.70;;;;;;4937637;29;20082;-69
2022/12/30 09:54:52;;;;;;;2.15;1.38;;;14.50;97.40;;;;;;4937550;29;20099;-68
2022/12/30 09:57:32;;;;;;;2.85;1.58;;;14.70;95.70;;;;;;4920833;29;20046;-70
2022/12/30 10:00:11;;;;;;;2.92;1.60;;;14.80;94.40;;;;;;4937519;29;20038;-69
2022/12/30 10:02:56;;;;;;;;;;;14.70;94.30;;;;;;4938601;29;20046;-69
2022/12/30 10:05:50;;;;;;;3.38;1.65;;;14.20;94.60;;;;;;4937555;29;19926;-69
2022/12/30 10:08:52;;;;;;;3.80;1.42;;;13.70;95.80;;;;;;4885278;29;20047;-69
2022/12/30 10:11:27;;;;;;;1.48;1.10;;;13.30;97.10;;;;;;4857436;29;20088;-69
2022/12/30 10:14:04;;;;;;;2.63;1.58;;;12.80;98.60;;;;;;4937510;29;20036;-69
2022/12/30 10:16:52;;;;;;;4.78;1.80;;;12.60;99.90;;;;;;4937583;29;20490;-69
2022/12/30 10:19:29;;;;;;;2.50;1.50;;;12.60;99.90;;;;;;4937693;29;20032;-69
2022/12/30 10:22:20;;;;;;;3.85;1.67;;;12.50;99.90;;;;;;4920700;29;20027;-69
2022/12/30 10:25:01;;;;;;;2.45;1.58;;;12.50;99.90;;;;;;4937596;29;20028;-69
2022/12/30 10:27:39;;;;;;;2.15;1.23;;;12.20;99.90;;;;;;4937509;29;20046;-69
2022/12/30 10:30:32;;;;;;;1.58;1.02;;;11.90;99.90;;;;;;4920507;29;20031;-69
2022/12/30 10:33:07;;;;;;;2.00;1.38;;;11.70;99.90;;;;;;4937360;29;20035;-69
2022/12/30 10:35:34;;;;;;;2.22;1.35;;;11.50;99.90;;;;;;4937110;29;20035;-69
2022/12/30 10:38:10;;;;;;;3.40;1.10;;;11.10;99.90;;;;;;4939028;29;20465;-70
2022/12/30 10:40:54;;;;;;;3.47;1.30;;;10.70;99.90;;;;;;4941532;29;20052;-69
2022/12/30 10:43:44;;;;;;;3.28;1.30;;;10.50;99.90;;;;;;4942754;29;20027;-68
2022/12/30 10:46:39;;;;;;;2.00;1.10;;;10.20;99.90;;;;;;4940416;29;20116;-69
2022/12/30 10:49:10;;;;;;;3.38;1.40;;;10.40;99.90;;;;;;4890923;29;20090;-68
2022/12/30 10:51:36;;;;;;;2.20;0.85;;;10.90;99.90;;;;;;4938562;29;20445;-69
2022/12/30 10:54:02;;;;;;;1.52;1.10;;;11.40;99.90;;;;;;4937914;29;20024;-69
2022/12/30 10:56:30;;;;;;;1.77;1.35;;;11.30;99.90;;;;;;4938666;29;20043;-68
2022/12/30 10:59:04;;;;;;;3.03;1.35;;;11.10;99.90;;;;;;4938592;29;20063;-69
2022/12/30 11:01:38;;;;;;;2.25;1.20;;;11.00;99.90;;;;;;4938399;29;20032;-69
2022/12/30 11:04:04;;;;;;;2.80;1.20;;;10.90;99.90;;;;;;4937743;29;20032;-69
2022/12/30 11:06:37;;;;;;;2.15;1.38;;;11.40;99.90;;;;;;4938403;29;20400;-70
2022/12/30 11:09:20;;;;;;;3.50;1.33;;;12.30;99.90;;;;;;4937843;29;20024;-69
2022/12/30 11:14:44;;;;;;;2.95;1.10;;;14.90;96.70;;;;;;4936791;29;20577;-68
2022/12/30 11:17:16;;;;;;;2.72;1.23;;;16.30;91.00;;;;;;4919602;29;20032;-69
2022/12/30 11:20:04;;;;;;;2.63;0.90;;;16.50;84.00;;;;;;4936574;29;20026;-69
2022/12/30 11:22:30;;;;;;;3.67;1.77;;;17.20;77.20;;;;;;4936939;29;20079;-69
2022/12/30 11:25:21;;;;;;;4.88;3.78;;;17.40;74.60;;;;;;4936175;29;20028;-69
2022/12/30 11:27:51;;;;;;;3.35;2.03;;;17.20;71.80;;;;;;4935257;29;20036;-69
2022/12/30 11:30:33;;;;;;;1.00;1.00;;;17.20;73.80;;;;;;4936130;29;20027;-69
2022/12/30 11:33:03;;;;;;;1.77;1.10;;;17.30;73.00;;;;;;4935125;29;20027;-69
2022/12/30 11:35:42;;;;;;;1.60;0.85;;;17.40;70.30;;;;;;4936501;29;20098;-69
2022/12/30 11:38:33;;;;;;;1.25;0.95;;;17.70;70.40;;;;;;4919393;29;20048;-69
2022/12/30 11:41:26;;;;;;;1.00;0.80;;;18.20;68.50;;;;;;4919776;29;20055;-69
2022/12/30 11:43:58;;;;;;;0.98;0.90;;;18.80;65.20;;;;;;4936350;29;20091;-69
2022/12/30 11:46:32;;;;;;;4.25;0.90;;;19.20;63.20;;;;;;4934982;29;20052;-69
2022/12/30 11:49:26;;;;;;;0.98;0.70;;;19.50;59.80;;;;;;4936828;29;20055;-69
2022/12/30 11:52:16;;;;;;;1.55;1.10;;;19.50;58.50;;;;;;4932249;29;20042;-71
2022/12/30 11:54:52;;;;;;;21.73;16.08;;;19.40;58.00;;;;;;4908893;29;20043;-70
2022/12/30 11:57:20;;;;;;;29.02;20.33;;;18.90;56.50;;;;;;4919127;29;20038;-70
2022/12/30 12:00:12;;;;;;;32.10;21.83;;;18.40;57.30;;;;;;4919107;29;20118;-70
2022/12/30 12:02:41;;;;;;;34.05;21.95;;;17.60;57.80;;;;;;4905814;29;20106;-70
2022/12/30 12:05:26;;;;;;;29.20;21.47;;;17.20;59.40;;;;;;4935796;29;20083;-69
2022/12/30 12:08:15;;;;;;;36.22;24.50;;;17.00;59.60;;;;;;4919099;29;20473;-70
2022/12/30 12:10:42;;;;;;;30.48;22.67;;;16.90;60.20;;;;;;4905807;29;20127;-70
2022/12/30 12:13:35;;;;;;;28.52;21.10;;;16.50;60.60;;;;;;4919327;29;20212;-70
2022/12/30 12:16:03;;;;;;;28.25;21.15;;;16.40;61.20;;;;;;4918925;29;20031;-69
2022/12/30 12:18:28;;;;;;;30.58;23.48;;;16.30;61.10;;;;;;4936460;29;20372;-70
2022/12/30 12:21:08;;;;;;;33.10;24.73;;;16.40;60.80;;;;;;4935990;29;20111;-69
2022/12/30 12:23:39;;;;;;;28.13;21.33;;;16.70;60.70;;;;;;4936464;29;20019;-70
2022/12/30 12:26:15;;;;;;;26.90;21.70;;;16.70;59.50;;;;;;4939119;29;20396;-70
2022/12/30 12:28:43;;;;;;;29.35;22.17;;;16.30;60.10;;;;;;4939146;29;20413;-70
2022/12/30 12:31:40;;;;;;;29.88;21.35;;;15.90;61.40;;;;;;4939123;29;20103;-69
2022/12/30 12:34:24;;;;;;;27.48;19.77;;;15.70;61.80;;;;;;4939724;29;20051;-69
2022/12/30 12:36:52;;;;;;;28.67;20.27;;;15.80;62.20;;;;;;4939193;29;20179;-69
2022/12/30 12:39:46;;;;;;;27.08;19.92;;;15.30;62.70;;;;;;4939382;29;20090;-69
2022/12/30 12:42:19;;;;;;;26.42;20.58;;;14.80;64.30;;;;;;4928836;29;20503;-69
2022/12/30 12:44:58;;;;;;;28.25;19.83;;;14.80;65.60;;;;;;4939219;29;20031;-68
2022/12/30 12:47:42;;;;;;;28.58;18.73;;;14.70;66.80;;;;;;4921839;29;20074;-70
2022/12/30 12:50:42;;;;;;;26.35;19.70;;;14.90;66.00;;;;;;4939012;29;20028;-69
2022/12/30 12:53:22;;;;;;;24.67;18.40;;;14.30;67.60;;;;;;4921822;29;20525;-70
2022/12/30 12:56:06;;;;;;;27.13;20.42;;;14.10;68.70;;;;;;4922116;29;20035;-70
2022/12/30 12:58:35;;;;;;;27.35;20.15;;;14.10;69.60;;;;;;4921601;29;20111;-70
2022/12/30 13:01:04;;;;;;;25.80;19.58;;;13.80;70.20;;;;;;4921843;29;20024;-69
2022/12/30 13:03:43;;;;;;;28.25;19.83;;;13.00;72.40;;;;;;4921857;29;20038;-69
2022/12/30 13:06:28;;;;;;;29.13;19.52;;;12.40;77.50;;;;;;4938457;29;20044;-69
2022/12/30 13:09:12;;;;;;;29.02;19.55;;;12.20;81.80;;;;;;4921621;29;20039;-69
2022/12/30 13:11:44;;;;;;;31.35;19.88;;;12.10;84.90;;;;;;4938768;29;20043;-69
2022/12/30 13:14:15;;;;;;;29.02;20.75;;;11.80;88.40;;;;;;4921221;29;20031;-69
2022/12/30 13:16:45;;;;;;;28.52;19.70;;;11.60;90.50;;;;;;4921659;29;20034;-69
2022/12/30 13:19:17;;;;;;;26.50;19.10;;;11.40;91.70;;;;;;4939131;29;20035;-69
2022/12/30 13:21:45;;;;;;;27.60;19.45;;;11.20;93.50;;;;;;4921720;29;20032;-70
2022/12/30 13:24:29;;;;;;;26.25;18.95;;;11.10;94.40;;;;;;4939140;29;20023;-69
2022/12/30 13:26:55;;;;;;;32.47;19.42;;;10.80;95.70;;;;;;4921533;29;20480;-70
2022/12/30 13:29:23;;;;;;;28.65;19.50;;;10.60;97.30;;;;;;4938651;29;20105;-69
2022/12/30 13:32:00;;;;;;;34.13;19.92;;;10.40;98.70;;;;;;4938510;29;20042;-70
2022/12/30 13:34:35;;;;;;;33.85;19.00;;;10.10;99.90;;;;;;4938178;29;20034;-70
2022/12/30 13:37:09;;;;;;;32.00;18.83;;;9.80;99.90;;;;;;4938830;29;20090;-69
2022/12/30 13:39:47;;;;;;;30.17;20.70;;;9.20;99.90;;;;;;4938734;29;20374;-70
2022/12/30 13:42:29;;;;;;;31.08;19.95;;;8.90;99.90;;;;;;4938769;29;20064;-70
2022/12/30 13:44:55;;;;;;;32.88;20.00;;;8.60;99.90;;;;;;4938829;29;20034;-70
2022/12/30 13:47:33;;;;;;;34.47;21.98;;;8.20;99.90;;;;;;4938787;29;20412;-70
2022/12/30 13:50:01;;;;;;;32.67;21.40;;;7.90;99.90;;;;;;4939407;29;20380;-69